createdAt,value
2022-12-26T00:01:12.734Z,6.90
2022-12-26T00:03:39.559Z,6.85
2022-12-26T00:06:13.157Z,6.86
2022-12-26T00:08:39.600Z,6.84
2022-12-26T00:11:06.223Z,6.81
2022-12-26T00:13:37.232Z,6.72
2022-12-26T00:16:08.733Z,6.68
2022-12-26T00:18:35.411Z,6.64
2022-12-26T00:21:02.091Z,6.59
2022-12-26T00:23:28.576Z,6.56
2022-12-26T00:25:55.021Z,6.50
2022-12-26T00:28:21.395Z,6.49
2022-12-26T00:30:47.730Z,6.52
2022-12-26T00:33:14.056Z,6.57
2022-12-26T00:35:40.415Z,6.63
2022-12-26T00:38:07.607Z,6.64
2022-12-26T00:40:34.077Z,6.64
2022-12-26T00:43:00.486Z,6.63
2022-12-26T00:45:26.789Z,6.61
2022-12-26T00:47:53.267Z,6.55
2022-12-26T00:50:20.056Z,6.49
2022-12-26T00:52:46.427Z,6.42
2022-12-26T00:55:12.767Z,6.35
2022-12-26T00:57:39.169Z,6.25
2022-12-26T01:00:06.510Z,6.18
2022-12-26T01:02:33.109Z,6.13
2022-12-26T01:04:59.706Z,6.12
2022-12-26T01:07:26.109Z,6.07
2022-12-26T01:09:52.438Z,6.01
2022-12-26T01:12:18.957Z,6.00
2022-12-26T01:14:45.532Z,5.96
2022-12-26T01:17:12.140Z,5.93
2022-12-26T01:19:38.577Z,5.80
2022-12-26T01:22:04.994Z,5.78
2022-12-26T01:24:31.683Z,5.75
2022-12-26T01:26:58.037Z,5.78
2022-12-26T01:29:24.497Z,5.78
2022-12-26T01:31:50.937Z,5.74
2022-12-26T01:34:17.465Z,5.74
2022-12-26T01:36:43.836Z,5.71
2022-12-26T01:39:10.268Z,5.68
2022-12-26T01:41:38.074Z,5.66
2022-12-26T01:44:07.908Z,5.67
2022-12-26T01:46:37.448Z,5.68
2022-12-26T01:49:13.940Z,5.67
2022-12-26T01:51:44.857Z,5.68
2022-12-26T01:54:40.857Z,5.68
2022-12-26T01:57:04.719Z,5.64
2022-12-26T01:59:32.929Z,5.59
2022-12-26T02:02:00.835Z,5.56
2022-12-26T02:04:39.719Z,5.53
2022-12-26T02:07:06.406Z,5.55
2022-12-26T02:09:33.781Z,5.53
2022-12-26T02:12:35.861Z,5.51
2022-12-26T02:14:57.387Z,5.51
2022-12-26T02:17:25.819Z,5.49
2022-12-26T02:19:58.167Z,5.44
2022-12-26T02:22:46.335Z,5.32
2022-12-26T02:25:32.745Z,5.29
2022-12-26T02:28:12.966Z,5.31
2022-12-26T02:31:09.030Z,5.30
2022-12-26T02:34:09.440Z,5.29
2022-12-26T02:37:00.367Z,5.26
2022-12-26T02:39:43.638Z,5.25
2022-12-26T02:42:22.633Z,5.20
2022-12-26T02:45:03.445Z,5.22
2022-12-26T02:47:44.636Z,5.24
2022-12-26T02:50:23.993Z,5.25
2022-12-26T02:53:17.071Z,5.25
2022-12-26T02:55:47.050Z,5.27
2022-12-26T02:58:21.191Z,5.35
2022-12-26T03:00:52.547Z,5.41
2022-12-26T03:03:22.445Z,5.45
2022-12-26T03:05:58.537Z,5.46
2022-12-26T03:08:32.133Z,5.43
2022-12-26T03:10:58.865Z,5.45
2022-12-26T03:13:31.819Z,5.46
2022-12-26T03:16:07.031Z,5.47
2022-12-26T03:18:58.890Z,5.45
2022-12-26T03:21:27.747Z,5.54
2022-12-26T03:23:56.634Z,5.62
2022-12-26T03:26:31.146Z,5.64
2022-12-26T03:28:57.604Z,5.68
2022-12-26T03:31:24.047Z,5.69
2022-12-26T03:33:50.460Z,5.61
2022-12-26T03:36:40.797Z,5.58
2022-12-26T03:39:24.039Z,5.58
2022-12-26T03:42:09.780Z,5.61
2022-12-26T03:44:58.479Z,5.57
2022-12-26T03:47:33.192Z,5.61
2022-12-26T03:50:26.051Z,5.62
2022-12-26T03:53:08.320Z,5.66
2022-12-26T03:55:45.202Z,5.65
2022-12-26T03:58:27.156Z,5.68
2022-12-26T04:00:56.539Z,5.65
2022-12-26T04:03:25.749Z,5.67
2022-12-26T04:05:53.679Z,5.66
2022-12-26T04:08:26.280Z,5.61
2022-12-26T04:10:55.894Z,5.61
2022-12-26T04:13:37.129Z,5.62
2022-12-26T04:16:14.480Z,5.61
2022-12-26T04:19:01.167Z,5.62
2022-12-26T04:21:34.997Z,5.66
2022-12-26T04:24:09.803Z,5.66
2022-12-26T04:26:46.265Z,5.70
2022-12-26T04:29:12.734Z,5.74
2022-12-26T04:31:55.271Z,5.76
2022-12-26T04:34:34.064Z,5.79
2022-12-26T04:37:05.904Z,5.85
2022-12-26T04:39:35.024Z,5.79
2022-12-26T04:42:02.173Z,5.80
2022-12-26T04:44:30.298Z,5.81
2022-12-26T04:46:57.189Z,5.83
2022-12-26T04:49:23.880Z,5.88
2022-12-26T04:51:50.426Z,5.91
2022-12-26T04:54:17.153Z,5.94
2022-12-26T04:56:43.666Z,6.00
2022-12-26T04:59:10.507Z,6.03
2022-12-26T05:01:37.068Z,5.99
2022-12-26T05:04:03.842Z,5.99
2022-12-26T05:06:30.279Z,5.96
2022-12-26T05:08:56.622Z,6.00
2022-12-26T05:11:24.061Z,6.01
2022-12-26T05:13:55.958Z,5.99
2022-12-26T05:16:23.948Z,6.00
2022-12-26T05:18:50.695Z,5.99
2022-12-26T05:21:18.646Z,5.98
2022-12-26T05:23:45.190Z,5.97
2022-12-26T05:26:17.130Z,5.98
2022-12-26T05:28:44.012Z,6.00
2022-12-26T05:31:15.018Z,5.96
2022-12-26T05:33:41.945Z,5.91
2022-12-26T05:36:09.731Z,5.86
2022-12-26T05:38:37.083Z,5.86
2022-12-26T05:41:04.111Z,5.88
2022-12-26T05:43:30.638Z,5.85
2022-12-26T05:45:57.179Z,5.91
2022-12-26T05:48:23.678Z,5.87
2022-12-26T05:50:51.388Z,5.88
2022-12-26T05:53:17.783Z,5.87
2022-12-26T05:55:44.363Z,5.91
2022-12-26T05:58:10.736Z,5.87
2022-12-26T06:00:37.428Z,5.92
2022-12-26T06:03:04.018Z,5.93
2022-12-26T06:05:30.443Z,5.93
2022-12-26T06:07:57.007Z,5.96
2022-12-26T06:10:23.371Z,6.00
2022-12-26T06:12:49.938Z,6.04
2022-12-26T06:15:16.744Z,6.07
2022-12-26T06:17:43.105Z,6.04
2022-12-26T06:20:09.726Z,6.10
2022-12-26T06:22:36.632Z,6.14
2022-12-26T06:25:03.034Z,6.16
2022-12-26T06:27:29.606Z,6.19
2022-12-26T06:29:56.325Z,6.20
2022-12-26T06:32:22.823Z,6.23
2022-12-26T06:34:49.410Z,6.24
2022-12-26T06:37:16.010Z,6.20
2022-12-26T06:39:42.609Z,6.22
2022-12-26T06:42:09.039Z,6.22
2022-12-26T06:44:35.563Z,6.21
2022-12-26T06:47:02.012Z,6.24
2022-12-26T06:49:32.724Z,6.28
2022-12-26T06:51:59.687Z,6.26
2022-12-26T06:54:26.205Z,6.25
2022-12-26T06:56:52.860Z,6.17
2022-12-26T06:59:19.316Z,6.18
2022-12-26T07:01:45.843Z,6.21
2022-12-26T07:04:13.054Z,6.21
2022-12-26T07:06:40.385Z,6.17
2022-12-26T07:09:15.997Z,6.14
2022-12-26T07:11:46.712Z,6.16
2022-12-26T07:14:13.864Z,6.20
2022-12-26T07:16:42.636Z,6.22
2022-12-26T07:19:11.410Z,6.24
2022-12-26T07:21:41.038Z,6.28
2022-12-26T07:24:15.746Z,6.32
2022-12-26T07:26:42.758Z,6.34
2022-12-26T07:29:10.379Z,6.35
2022-12-26T07:31:36.903Z,6.33
2022-12-26T07:34:03.700Z,6.32
2022-12-26T07:36:30.006Z,6.35
2022-12-26T07:38:56.501Z,6.32
2022-12-26T07:41:23.435Z,6.32
2022-12-26T07:43:49.853Z,6.35
2022-12-26T07:46:16.424Z,6.39
2022-12-26T07:48:42.980Z,6.42
2022-12-26T07:51:09.640Z,6.45
2022-12-26T07:53:36.097Z,6.50
2022-12-26T07:56:02.594Z,6.57
2022-12-26T07:58:28.963Z,6.60
2022-12-26T08:00:55.731Z,6.62
2022-12-26T08:03:23.084Z,6.65
2022-12-26T08:05:50.368Z,6.67
2022-12-26T08:08:17.144Z,6.73
2022-12-26T08:10:43.670Z,6.75
2022-12-26T08:13:10.173Z,6.78
2022-12-26T08:15:39.932Z,6.74
2022-12-26T08:18:07.147Z,6.77
2022-12-26T08:20:34.004Z,6.78
2022-12-26T08:23:00.668Z,6.79
2022-12-26T08:25:27.353Z,6.82
2022-12-26T08:27:53.954Z,6.87
2022-12-26T08:30:20.289Z,6.90
2022-12-26T08:32:46.796Z,6.89
2022-12-26T08:35:13.262Z,6.93
2022-12-26T08:37:39.794Z,6.97
2022-12-26T08:40:06.567Z,7.01
2022-12-26T08:42:34.641Z,7.06
2022-12-26T08:45:06.902Z,7.11
2022-12-26T08:47:33.425Z,7.15
2022-12-26T08:49:59.867Z,7.18
2022-12-26T08:52:26.296Z,7.16
2022-12-26T08:54:52.718Z,7.19
2022-12-26T08:57:19.062Z,7.20
2022-12-26T08:59:45.609Z,7.18
2022-12-26T09:02:12.489Z,7.18
2022-12-26T09:04:39.088Z,7.20
2022-12-26T09:07:08.261Z,7.18
2022-12-26T09:09:34.972Z,7.21
2022-12-26T09:12:01.644Z,7.22
2022-12-26T09:14:27.987Z,7.24
2022-12-26T09:16:54.553Z,7.28
2022-12-26T09:19:21.666Z,7.30
2022-12-26T09:21:51.414Z,7.32
2022-12-26T09:24:18.212Z,7.35
2022-12-26T09:26:45.213Z,7.37
2022-12-26T09:29:12.240Z,7.38
2022-12-26T09:31:39.095Z,7.38
2022-12-26T09:34:06.532Z,7.40
2022-12-26T09:36:35.938Z,7.37
2022-12-26T09:39:02.374Z,7.39
2022-12-26T09:42:00.149Z,7.37
2022-12-26T09:44:48.521Z,7.42
2022-12-26T09:47:17.978Z,7.41
2022-12-26T09:50:02.635Z,7.43
2022-12-26T09:52:52.417Z,7.46
2022-12-26T09:55:29.363Z,7.49
2022-12-26T09:58:01.359Z,7.51
2022-12-26T10:00:38.498Z,7.50
2022-12-26T10:03:05.275Z,7.48
2022-12-26T10:05:41.130Z,7.48
2022-12-26T10:08:50.002Z,7.53
2022-12-26T10:11:46.451Z,7.55
2022-12-26T10:14:30.510Z,7.56
2022-12-26T10:17:05.526Z,7.55
2022-12-26T10:19:42.707Z,7.55
2022-12-26T10:22:27.353Z,7.56
2022-12-26T10:24:59.637Z,7.56
2022-12-26T10:27:28.258Z,7.58
2022-12-26T10:30:05.497Z,7.66
2022-12-26T10:32:39.814Z,7.61
2022-12-26T10:35:27.355Z,7.59
2022-12-26T10:37:57.039Z,7.61
2022-12-26T10:40:34.022Z,7.63
2022-12-26T10:43:20.553Z,7.64
2022-12-26T10:46:16.500Z,7.64
2022-12-26T10:48:43.061Z,7.63
2022-12-26T10:51:09.711Z,7.65
2022-12-26T10:53:41.661Z,7.66
2022-12-26T10:56:11.956Z,7.71
2022-12-26T10:58:41.391Z,7.75
2022-12-26T11:01:29.435Z,7.78
2022-12-26T11:03:58.277Z,7.82
2022-12-26T11:06:28.874Z,7.83
2022-12-26T11:08:55.856Z,7.92
2022-12-26T11:11:28.824Z,7.89
2022-12-26T11:14:02.057Z,7.89
2022-12-26T11:16:40.035Z,7.84
2022-12-26T11:19:06.576Z,7.83
2022-12-26T11:21:33.470Z,7.83
2022-12-26T11:24:08.980Z,7.87
2022-12-26T11:26:36.558Z,7.94
2022-12-26T11:29:07.533Z,7.95
2022-12-26T11:31:34.145Z,7.96
2022-12-26T11:34:01.250Z,8.06
2022-12-26T11:36:30.021Z,8.12
2022-12-26T11:39:00.456Z,8.22
2022-12-26T11:41:27.398Z,8.23
2022-12-26T11:43:55.752Z,8.21
2022-12-26T11:46:32.923Z,8.19
2022-12-26T11:48:59.660Z,8.18
2022-12-26T11:51:40.264Z,8.19
2022-12-26T11:54:23.597Z,8.21
2022-12-26T11:57:01.144Z,8.21
2022-12-26T11:59:27.889Z,8.22
2022-12-26T12:02:31.942Z,8.40
2022-12-26T12:05:07.121Z,8.32
2022-12-26T12:07:58.388Z,8.31
2022-12-26T12:11:09.912Z,8.38
2022-12-26T12:13:56.229Z,8.44
2022-12-26T12:16:28.944Z,8.44
2022-12-26T12:19:03.558Z,8.46
2022-12-26T12:21:45.094Z,8.51
2022-12-26T12:24:36.701Z,8.54
2022-12-26T12:27:11.851Z,8.59
2022-12-26T12:30:12.375Z,8.63
2022-12-26T12:33:02.559Z,8.64
2022-12-26T12:35:50.217Z,8.65
2022-12-26T12:38:28.668Z,8.65
2022-12-26T12:41:13.130Z,8.74
2022-12-26T12:43:48.084Z,8.79
2022-12-26T12:46:22.980Z,8.85
2022-12-26T12:49:15.932Z,8.82
2022-12-26T12:51:58.241Z,8.81
2022-12-26T12:54:53.919Z,8.80
2022-12-26T12:57:52.527Z,8.78
2022-12-26T13:00:22.360Z,8.75
2022-12-26T13:03:00.138Z,8.75
2022-12-26T13:06:07.833Z,8.82
2022-12-26T13:08:39.114Z,8.85
2022-12-26T13:11:25.264Z,8.83
2022-12-26T13:14:01.380Z,8.83
2022-12-26T13:16:32.548Z,8.84
2022-12-26T13:19:04.190Z,8.81
2022-12-26T13:21:35.643Z,8.81
2022-12-26T13:24:11.906Z,8.82
2022-12-26T13:27:00.017Z,8.83
2022-12-26T13:29:41.371Z,8.83
2022-12-26T13:32:34.195Z,8.82
2022-12-26T13:35:02.465Z,8.80
2022-12-26T13:37:37.815Z,8.75
2022-12-26T13:40:27.344Z,8.77
2022-12-26T13:43:03.114Z,8.76
2022-12-26T13:45:35.509Z,8.76
2022-12-26T13:48:27.919Z,8.77
2022-12-26T13:50:56.948Z,8.78
2022-12-26T13:53:26.275Z,8.79
2022-12-26T13:55:55.432Z,8.78
2022-12-26T13:58:40.852Z,8.75
2022-12-26T14:01:28.880Z,8.74
2022-12-26T14:04:26.277Z,8.76
2022-12-26T14:07:20.566Z,8.74
2022-12-26T14:10:05.095Z,8.72
2022-12-26T14:12:40.471Z,8.71
2022-12-26T14:15:21.847Z,8.68
2022-12-26T14:18:09.533Z,8.67
2022-12-26T14:20:49.465Z,8.71
2022-12-26T14:23:37.763Z,8.66
2022-12-26T14:26:31.598Z,8.64
2022-12-26T14:29:22.341Z,8.62
2022-12-26T14:32:07.246Z,8.63
2022-12-26T14:35:01.740Z,8.61
2022-12-26T14:37:44.284Z,8.66
2022-12-26T14:40:22.992Z,8.63
2022-12-26T14:43:10.547Z,8.60
2022-12-26T14:45:38.943Z,8.58
2022-12-26T14:48:17.903Z,8.62
2022-12-26T14:50:49.293Z,8.61
2022-12-26T14:53:24.971Z,8.59
2022-12-26T14:56:23.407Z,8.57
2022-12-26T14:58:51.748Z,8.55
2022-12-26T15:01:24.403Z,8.54
2022-12-26T15:03:50.784Z,8.54
2022-12-26T15:06:20.198Z,8.53
2022-12-26T15:09:08.475Z,8.51
2022-12-26T15:11:49.812Z,8.49
2022-12-26T15:14:57.592Z,8.45
2022-12-26T15:17:52.568Z,8.47
2022-12-26T15:20:43.257Z,8.44
2022-12-26T15:23:27.560Z,8.41
2022-12-26T15:26:31.541Z,8.37
2022-12-26T15:29:19.593Z,8.36
2022-12-26T15:31:52.013Z,8.33
2022-12-26T15:34:41.948Z,8.30
2022-12-26T15:37:30.786Z,8.27
2022-12-26T15:40:12.021Z,8.24
2022-12-26T15:43:01.162Z,8.22
2022-12-26T15:45:46.476Z,8.17
2022-12-26T15:48:34.559Z,8.10
2022-12-26T15:51:22.372Z,8.04
2022-12-26T15:54:00.999Z,8.13
2022-12-26T15:56:45.601Z,8.12
2022-12-26T15:59:12.102Z,8.09
2022-12-26T16:01:46.505Z,8.09
2022-12-26T16:04:21.973Z,8.09
2022-12-26T16:07:08.970Z,8.09
2022-12-26T16:09:45.148Z,8.14
2022-12-26T16:12:30.150Z,8.11
2022-12-26T16:15:11.608Z,8.16
2022-12-26T16:17:39.741Z,8.16
2022-12-26T16:20:24.326Z,8.14
2022-12-26T16:22:50.753Z,8.12
2022-12-26T16:25:21.711Z,8.08
2022-12-26T16:27:51.424Z,8.11
2022-12-26T16:30:21.916Z,8.08
2022-12-26T16:32:49.636Z,8.04
2022-12-26T16:35:26.740Z,8.20
2022-12-26T16:37:56.337Z,8.15
2022-12-26T16:40:31.175Z,8.12
2022-12-26T16:43:17.518Z,8.12
2022-12-26T16:45:52.762Z,8.14
2022-12-26T16:48:21.875Z,8.08
2022-12-26T16:50:52.401Z,8.04
2022-12-26T16:53:24.602Z,8.00
2022-12-26T16:56:14.977Z,8.06
2022-12-26T16:58:41.492Z,8.03
2022-12-26T17:01:12.370Z,8.04
2022-12-26T17:03:44.329Z,8.10
2022-12-26T17:06:15.414Z,8.12
2022-12-26T17:08:48.738Z,8.08
2022-12-26T17:11:15.861Z,8.07
2022-12-26T17:13:49.863Z,8.08
2022-12-26T17:16:16.369Z,8.12
2022-12-26T17:18:49.921Z,8.15
2022-12-26T17:21:27.185Z,8.19
2022-12-26T17:24:19.773Z,8.27
2022-12-26T17:26:51.516Z,8.21
2022-12-26T17:29:45.978Z,8.25
2022-12-26T17:32:15.954Z,8.22
2022-12-26T17:34:42.671Z,8.22
2022-12-26T17:37:19.947Z,8.21
2022-12-26T17:40:00.896Z,8.26
2022-12-26T17:42:29.367Z,8.29
2022-12-26T17:44:55.772Z,8.30
2022-12-26T17:47:28.250Z,8.37
2022-12-26T17:49:55.849Z,8.36
2022-12-26T17:52:27.025Z,8.32
2022-12-26T17:54:53.847Z,8.32
2022-12-26T17:57:23.686Z,8.30
2022-12-26T17:59:52.180Z,8.30
2022-12-26T18:02:19.771Z,8.38
2022-12-26T18:04:47.341Z,8.46
2022-12-26T18:07:19.371Z,8.47
2022-12-26T18:09:46.512Z,8.43
2022-12-26T18:12:14.923Z,8.31
2022-12-26T18:14:41.497Z,8.23
2022-12-26T18:17:11.129Z,8.16
2022-12-26T18:19:37.471Z,8.07
2022-12-26T18:22:12.840Z,7.98
2022-12-26T18:24:39.158Z,7.96
2022-12-26T18:27:05.741Z,7.93
2022-12-26T18:29:32.088Z,7.94
2022-12-26T18:31:58.609Z,7.92
2022-12-26T18:34:25.309Z,7.92
2022-12-26T18:36:52.034Z,7.90
2022-12-26T18:39:18.656Z,7.85
2022-12-26T18:41:45.586Z,7.83
2022-12-26T18:44:12.085Z,7.80
2022-12-26T18:46:38.451Z,7.89
2022-12-26T18:49:04.850Z,7.86
2022-12-26T18:51:31.251Z,7.82
2022-12-26T18:53:57.794Z,7.79
2022-12-26T18:56:24.108Z,7.81
2022-12-26T18:58:57.564Z,7.73
2022-12-26T19:01:24.911Z,7.72
2022-12-26T19:03:51.408Z,7.66
2022-12-26T19:06:26.820Z,7.68
2022-12-26T19:08:53.453Z,7.66
2022-12-26T19:11:20.194Z,7.64
2022-12-26T19:13:47.059Z,7.62
2022-12-26T19:16:13.937Z,7.58
2022-12-26T19:18:40.490Z,7.55
2022-12-26T19:21:12.346Z,7.49
2022-12-26T19:23:39.229Z,7.44
2022-12-26T19:26:10.529Z,7.44
2022-12-26T19:28:36.929Z,7.32
2022-12-26T19:31:11.064Z,7.30
2022-12-26T19:33:37.769Z,7.23
2022-12-26T19:36:05.653Z,7.13
2022-12-26T19:38:32.274Z,7.13
2022-12-26T19:41:07.363Z,7.09
2022-12-26T19:43:33.833Z,7.07
2022-12-26T19:46:05.638Z,7.05
2022-12-26T19:48:36.221Z,7.04
2022-12-26T19:51:07.994Z,7.00
2022-12-26T19:53:35.829Z,6.98
2022-12-26T19:56:17.182Z,6.98
2022-12-26T19:58:44.786Z,6.96
2022-12-26T20:01:18.104Z,6.92
2022-12-26T20:03:45.312Z,6.92
2022-12-26T20:06:14.167Z,6.95
2022-12-26T20:08:41.714Z,6.99
2022-12-26T20:11:11.209Z,6.96
2022-12-26T20:13:37.748Z,6.97
2022-12-26T20:16:06.385Z,7.00
2022-12-26T20:18:35.191Z,6.98
2022-12-26T20:21:02.038Z,6.98
2022-12-26T20:23:28.837Z,7.01
2022-12-26T20:25:58.630Z,7.02
2022-12-26T20:28:25.436Z,7.02
2022-12-26T20:31:19.811Z,7.04
2022-12-26T20:33:49.480Z,7.11
2022-12-26T20:36:18.985Z,7.11
2022-12-26T20:38:46.282Z,7.10
2022-12-26T20:41:13.077Z,7.13
2022-12-26T20:43:40.135Z,7.12
2022-12-26T20:46:09.082Z,7.13
2022-12-26T20:48:36.327Z,7.15
2022-12-26T20:51:06.394Z,7.20
2022-12-26T20:53:33.660Z,7.21
2022-12-26T20:56:00.365Z,7.18
2022-12-26T20:58:30.412Z,7.18
2022-12-26T21:00:58.470Z,7.16
2022-12-26T21:03:26.281Z,7.11
2022-12-26T21:05:53.787Z,7.10
2022-12-26T21:08:20.754Z,7.09
2022-12-26T21:10:47.158Z,7.07
2022-12-26T21:13:13.819Z,7.11
2022-12-26T21:15:40.521Z,7.16
2022-12-26T21:18:06.826Z,7.20
2022-12-26T21:20:36.286Z,7.16
2022-12-26T21:23:02.698Z,7.17
2022-12-26T21:25:29.105Z,7.18
2022-12-26T21:27:59.090Z,7.20
2022-12-26T21:30:25.833Z,7.31
2022-12-26T21:32:52.204Z,7.29
2022-12-26T21:35:18.785Z,7.29
2022-12-26T21:37:45.177Z,7.27
2022-12-26T21:40:12.154Z,7.18
2022-12-26T21:42:38.525Z,7.15
2022-12-26T21:45:05.208Z,7.09
2022-12-26T21:47:31.624Z,7.03
2022-12-26T21:49:57.975Z,7.02
2022-12-26T21:52:24.377Z,7.01
2022-12-26T21:54:50.767Z,6.94
2022-12-26T21:57:18.341Z,6.89
2022-12-26T21:59:45.542Z,6.91
2022-12-26T22:02:13.706Z,6.86
2022-12-26T22:04:40.183Z,6.87
2022-12-26T22:07:06.529Z,6.83
2022-12-26T22:09:33.108Z,6.83
2022-12-26T22:11:59.756Z,6.78
2022-12-26T22:14:26.165Z,6.79
2022-12-26T22:16:53.929Z,6.69
2022-12-26T22:19:20.920Z,6.67
2022-12-26T22:21:47.471Z,6.66
2022-12-26T22:24:13.963Z,6.64
2022-12-26T22:26:40.334Z,6.65
2022-12-26T22:29:06.690Z,6.61
2022-12-26T22:31:35.285Z,6.66
2022-12-26T22:34:10.868Z,6.53
2022-12-26T22:36:37.263Z,6.47
2022-12-26T22:39:04.243Z,6.40
2022-12-26T22:41:30.789Z,6.39
2022-12-26T22:43:57.555Z,6.37
2022-12-26T22:46:24.110Z,6.30
2022-12-26T22:48:50.940Z,6.25
2022-12-26T22:51:21.929Z,6.17
2022-12-26T22:53:49.005Z,6.13
2022-12-26T22:56:15.395Z,6.07
2022-12-26T22:58:41.977Z,6.04
2022-12-26T23:01:16.916Z,6.04
2022-12-26T23:03:43.604Z,5.98
2022-12-26T23:06:19.986Z,5.99
2022-12-26T23:08:46.999Z,6.05
2022-12-26T23:11:13.666Z,6.07
2022-12-26T23:13:40.396Z,6.06
2022-12-26T23:16:33.813Z,6.07
2022-12-26T23:19:05.318Z,5.97
2022-12-26T23:21:34.666Z,6.10
2022-12-26T23:24:01.104Z,6.13
2022-12-26T23:26:27.480Z,6.07
2022-12-26T23:28:54.001Z,6.05
2022-12-26T23:31:20.728Z,5.99
2022-12-26T23:33:47.177Z,5.98
2022-12-26T23:36:13.762Z,5.99
2022-12-26T23:38:40.105Z,5.94
2022-12-26T23:41:06.556Z,5.89
2022-12-26T23:43:32.941Z,5.90
2022-12-26T23:46:00.537Z,5.85
2022-12-26T23:48:27.065Z,5.82
2022-12-26T23:51:07.420Z,5.84
2022-12-26T23:53:34.307Z,5.82
2022-12-26T23:56:00.652Z,5.84
2022-12-26T23:58:27.340Z,5.81
